createdAt,value
2023-01-07T00:04:39.959Z,2.80
2023-01-07T00:10:42.291Z,2.70
2023-01-07T00:16:44.548Z,2.60
2023-01-07T00:22:46.822Z,2.50
2023-01-07T00:28:51.282Z,2.50
2023-01-07T00:34:53.501Z,2.40
2023-01-07T00:40:56.170Z,2.30
2023-01-07T00:46:59.683Z,2.20
2023-01-07T00:53:02.376Z,2.10
2023-01-07T00:59:04.729Z,2.10
2023-01-07T01:05:07.771Z,2.10
2023-01-07T01:11:11.064Z,2.00
2023-01-07T01:17:13.435Z,2.00
2023-01-07T01:23:15.585Z,1.90
2023-01-07T01:29:17.794Z,1.80
2023-01-07T01:35:20.052Z,1.80
2023-01-07T01:41:23.712Z,1.70
2023-01-07T01:48:04.931Z,1.70
2023-01-07T01:54:12.645Z,1.60
2023-01-07T02:00:19.422Z,1.60
2023-01-07T02:06:27.588Z,1.60
2023-01-07T02:12:55.668Z,1.50
2023-01-07T02:19:25.345Z,1.50
2023-01-07T02:26:00.019Z,1.50
2023-01-07T02:32:21.034Z,1.40
2023-01-07T02:38:45.231Z,1.30
2023-01-07T02:44:56.441Z,1.30
2023-01-07T02:50:58.791Z,1.30
2023-01-07T02:57:31.076Z,1.20
2023-01-07T03:03:49.007Z,1.20
2023-01-07T03:10:00.143Z,1.20
2023-01-07T03:16:26.052Z,1.20
2023-01-07T03:22:31.178Z,1.10
2023-01-07T03:28:37.755Z,1.10
2023-01-07T03:34:41.260Z,1.10
2023-01-07T03:40:44.642Z,1.10
2023-01-07T03:46:46.922Z,1.00
2023-01-07T03:52:51.365Z,1.00
2023-01-07T03:58:55.341Z,1.00
2023-01-07T04:04:58.618Z,0.90
2023-01-07T04:11:01.456Z,0.90
2023-01-07T04:17:04.291Z,0.90
2023-01-07T04:23:06.686Z,0.80
2023-01-07T04:29:09.187Z,0.80
2023-01-07T04:35:11.429Z,0.90
2023-01-07T04:41:14.827Z,0.90
2023-01-07T04:47:17.159Z,0.90
2023-01-07T04:53:20.308Z,0.90
2023-01-07T04:59:23.888Z,0.90
2023-01-07T05:05:26.341Z,0.80
2023-01-07T05:11:29.334Z,0.80
2023-01-07T05:17:33.824Z,0.80
2023-01-07T05:23:37.340Z,0.80
2023-01-07T05:29:39.739Z,0.80
2023-01-07T05:35:41.921Z,0.80
2023-01-07T05:41:44.200Z,0.90
2023-01-07T05:47:46.736Z,1.00
2023-01-07T05:53:49.270Z,1.00
2023-01-07T05:59:51.510Z,1.10
2023-01-07T06:05:53.805Z,1.10
2023-01-07T06:11:56.130Z,1.30
2023-01-07T06:17:58.302Z,1.50
2023-01-07T06:24:00.524Z,1.70
2023-01-07T06:30:04.742Z,2.00
2023-01-07T06:36:08.430Z,2.40
2023-01-07T06:42:11.053Z,2.80
2023-01-07T06:48:13.246Z,3.30
2023-01-07T06:54:15.597Z,3.40
2023-01-07T07:00:18.006Z,3.40
2023-01-07T07:06:20.183Z,3.50
2023-01-07T07:12:22.832Z,3.60
2023-01-07T07:18:25.115Z,3.80
2023-01-07T07:24:27.228Z,4.30
2023-01-07T07:30:46.569Z,8.90
2023-01-07T07:36:50.244Z,13.70
2023-01-07T07:43:11.327Z,15.40
2023-01-07T07:49:14.495Z,13.80
2023-01-07T07:55:20.772Z,14.00
2023-01-07T08:01:28.360Z,14.80
2023-01-07T08:07:32.247Z,15.50
2023-01-07T08:13:36.178Z,15.40
2023-01-07T08:19:38.372Z,16.50
2023-01-07T08:25:40.679Z,13.70
2023-01-07T08:31:43.124Z,12.80
2023-01-07T08:37:45.741Z,15.50
2023-01-07T08:43:48.204Z,16.20
2023-01-07T08:49:50.402Z,15.00
2023-01-07T08:55:52.610Z,14.10
2023-01-07T09:01:55.278Z,14.20
2023-01-07T09:07:58.198Z,12.40
2023-01-07T09:14:00.523Z,11.70
2023-01-07T09:20:04.155Z,12.20
2023-01-07T09:26:06.686Z,12.30
2023-01-07T09:32:09.136Z,12.30
2023-01-07T09:38:11.407Z,12.30
2023-01-07T09:44:25.896Z,12.40
2023-01-07T09:50:45.138Z,12.00
2023-01-07T09:56:47.703Z,11.90
2023-01-07T10:03:11.564Z,12.00
2023-01-07T10:09:38.420Z,12.00
2023-01-07T10:15:40.881Z,12.10
2023-01-07T10:22:03.172Z,12.40
2023-01-07T10:28:10.549Z,12.80
2023-01-07T10:34:31.703Z,12.70
2023-01-07T10:40:42.178Z,13.10
2023-01-07T10:47:08.104Z,13.40
2023-01-07T10:53:31.888Z,13.50
2023-01-07T10:59:34.744Z,13.80
2023-01-07T11:05:37.933Z,14.50
2023-01-07T11:11:41.322Z,14.50
2023-01-07T11:17:56.585Z,14.30
2023-01-07T11:23:59.570Z,14.00
2023-01-07T11:30:16.692Z,14.20
2023-01-07T11:36:19.075Z,14.50
2023-01-07T11:42:39.358Z,15.10
2023-01-07T11:48:50.312Z,15.50
2023-01-07T11:54:52.724Z,16.20
2023-01-07T12:01:22.282Z,17.30
2023-01-07T12:07:25.467Z,14.80
2023-01-07T12:13:28.819Z,13.90
2023-01-07T12:20:04.511Z,12.90
2023-01-07T12:26:19.096Z,12.30
2023-01-07T12:32:57.563Z,12.00
2023-01-07T12:39:04.226Z,12.00
2023-01-07T12:45:14.977Z,11.70
2023-01-07T12:51:31.678Z,11.50
2023-01-07T12:57:37.654Z,11.60
2023-01-07T13:04:03.230Z,11.20
2023-01-07T13:32:04.451Z,10.10
2023-01-07T13:38:39.964Z,10.20
2023-01-07T13:45:11.619Z,10.10
2023-01-07T13:51:14.286Z,10.00
2023-01-07T13:57:31.329Z,9.80
2023-01-07T14:03:39.653Z,9.70
2023-01-07T14:09:41.874Z,9.60
2023-01-07T14:15:59.780Z,9.50
2023-01-07T14:22:31.976Z,9.40
2023-01-07T14:28:36.981Z,9.20
2023-01-07T14:34:39.407Z,9.00
2023-01-07T14:40:49.058Z,8.90
2023-01-07T14:46:51.797Z,8.70
2023-01-07T14:52:59.829Z,8.50
2023-01-07T14:59:20.179Z,8.30
2023-01-07T15:05:47.233Z,8.30
2023-01-07T15:12:10.305Z,8.20
2023-01-07T15:18:13.239Z,8.00
2023-01-07T15:24:40.714Z,7.80
2023-01-07T15:30:57.328Z,7.80
2023-01-07T15:37:03.240Z,7.70
2023-01-07T15:43:06.580Z,7.50
2023-01-07T15:49:11.548Z,7.30
2023-01-07T15:55:30.580Z,7.30
2023-01-07T16:01:32.847Z,7.20
2023-01-07T16:07:50.091Z,7.00
2023-01-07T16:14:19.921Z,6.80
2023-01-07T16:20:35.598Z,6.70
2023-01-07T16:26:41.523Z,6.60
2023-01-07T16:32:45.622Z,6.50
2023-01-07T16:38:50.400Z,6.40
2023-01-07T16:44:55.699Z,6.30
2023-01-07T16:50:57.810Z,6.30
2023-01-07T16:57:02.826Z,6.40
2023-01-07T17:03:05.157Z,6.50
2023-01-07T17:09:20.896Z,6.70
2023-01-07T17:15:32.663Z,6.80
2023-01-07T17:21:42.511Z,6.70
2023-01-07T17:28:00.755Z,6.80
2023-01-07T17:34:02.842Z,6.80
2023-01-07T17:40:05.968Z,6.80
2023-01-07T17:46:11.903Z,6.80
2023-01-07T17:52:14.269Z,6.80
2023-01-07T17:58:29.092Z,6.80
2023-01-07T18:04:31.445Z,6.90
2023-01-07T18:10:53.569Z,6.90
2023-01-07T18:16:56.008Z,6.90
2023-01-07T18:22:58.370Z,7.00
2023-01-07T18:29:00.496Z,7.00
2023-01-07T18:35:02.909Z,7.10
2023-01-07T18:41:05.362Z,7.30
2023-01-07T18:47:07.448Z,7.30
2023-01-07T18:53:09.924Z,7.20
2023-01-07T18:59:13.096Z,7.20
2023-01-07T19:05:15.290Z,7.10
2023-01-07T19:11:17.364Z,7.10
2023-01-07T19:17:19.667Z,7.10
2023-01-07T19:23:22.091Z,7.00
2023-01-07T19:29:24.321Z,6.90
2023-01-07T19:35:27.203Z,6.90
2023-01-07T19:41:29.963Z,7.00
2023-01-07T19:47:32.808Z,7.00
2023-01-07T19:53:35.855Z,7.00
2023-01-07T19:59:37.997Z,6.90
2023-01-07T20:05:40.216Z,6.80
2023-01-07T20:11:45.238Z,6.60
2023-01-07T20:17:47.461Z,6.50
2023-01-07T20:23:49.896Z,6.50
2023-01-07T20:29:52.311Z,6.50
2023-01-07T20:36:09.579Z,6.30
2023-01-07T20:42:11.836Z,6.20
2023-01-07T20:48:15.715Z,6.10
2023-01-07T20:54:18.094Z,6.00
2023-01-07T21:00:20.511Z,6.00
2023-01-07T21:06:22.951Z,5.90
2023-01-07T21:12:25.488Z,5.80
2023-01-07T21:18:27.799Z,5.70
2023-01-07T21:24:30.368Z,5.60
2023-01-07T21:30:33.041Z,5.50
2023-01-07T21:36:35.015Z,5.50
2023-01-07T21:42:37.424Z,5.40
2023-01-07T21:48:41.738Z,5.30
2023-01-07T21:54:44.078Z,5.20
2023-01-07T22:00:50.702Z,5.30
2023-01-07T22:06:53.427Z,5.20
2023-01-07T22:12:55.432Z,5.20
2023-01-07T22:18:58.042Z,5.20
2023-01-07T22:25:00.117Z,5.10
2023-01-07T22:31:15.982Z,4.90
2023-01-07T22:37:21.157Z,4.60
2023-01-07T22:43:25.116Z,4.40
2023-01-07T22:49:29.312Z,4.20
2023-01-07T22:55:32.985Z,3.90
2023-01-07T23:01:35.768Z,3.80
2023-01-07T23:07:37.885Z,3.80
2023-01-07T23:13:40.038Z,3.70
2023-01-07T23:19:42.185Z,3.60
2023-01-07T23:25:48.744Z,3.50
2023-01-07T23:31:51.491Z,3.40
2023-01-07T23:37:53.593Z,3.40
2023-01-07T23:43:56.149Z,3.40
2023-01-07T23:49:58.047Z,3.30
2023-01-07T23:56:00.219Z,3.30
